createdAt,value
2023-04-17T00:00:38.059Z,23.70
2023-04-17T00:01:43.082Z,21.55
2023-04-17T00:02:45.367Z,20.17
2023-04-17T00:03:52.833Z,24.00
2023-04-17T00:04:55.537Z,22.00
2023-04-17T00:06:00.309Z,20.70
2023-04-17T00:07:03.561Z,21.77
2023-04-17T00:08:08.577Z,23.98
2023-04-17T00:09:11.419Z,24.63
2023-04-17T00:10:16.816Z,22.33
2023-04-17T00:11:19.124Z,21.23
2023-04-17T00:12:23.759Z,21.67
2023-04-17T00:13:25.820Z,21.48
2023-04-17T00:14:33.063Z,21.60
2023-04-17T00:15:35.130Z,22.08
2023-04-17T00:16:39.798Z,22.58
2023-04-17T00:17:41.855Z,21.83
2023-04-17T00:18:46.590Z,21.95
2023-04-17T00:19:48.809Z,23.40
2023-04-17T00:20:53.793Z,22.52
2023-04-17T00:21:58.443Z,23.30
2023-04-17T00:23:00.581Z,23.60
2023-04-17T00:24:05.234Z,22.83
2023-04-17T00:25:10.602Z,25.50
2023-04-17T00:26:15.513Z,23.45
2023-04-17T00:27:17.593Z,25.13
2023-04-17T00:28:22.238Z,22.20
2023-04-17T00:29:24.451Z,23.15
2023-04-17T00:30:31.713Z,22.88
2023-04-17T00:31:33.772Z,23.75
2023-04-17T00:32:38.584Z,23.20
2023-04-17T00:33:40.656Z,22.95
2023-04-17T00:34:45.270Z,23.95
2023-04-17T00:35:47.359Z,23.63
2023-04-17T00:36:51.953Z,24.13
2023-04-17T00:37:53.975Z,23.67
2023-04-17T00:38:58.594Z,24.42
2023-04-17T00:40:00.766Z,23.42
2023-04-17T00:41:05.438Z,23.58
2023-04-17T00:42:07.484Z,24.80
2023-04-17T00:43:12.112Z,26.23
2023-04-17T00:44:14.215Z,25.80
2023-04-17T00:47:13.402Z,24.85
2023-04-17T00:48:16.944Z,27.67
2023-04-17T00:49:22.922Z,23.88
2023-04-17T00:50:25.452Z,24.77
2023-04-17T00:51:30.473Z,23.50
2023-04-17T00:52:32.611Z,24.85
2023-04-17T00:53:38.280Z,23.65
2023-04-17T00:54:40.702Z,23.95
2023-04-17T00:55:46.597Z,23.10
2023-04-17T00:56:50.694Z,23.25
2023-04-17T00:57:55.375Z,21.63
2023-04-17T00:58:57.965Z,23.15
2023-04-17T01:00:02.715Z,24.30
2023-04-17T01:01:05.265Z,28.67
2023-04-17T01:02:10.113Z,23.35
2023-04-17T01:03:38.288Z,23.27
2023-04-17T01:04:40.665Z,22.55
2023-04-17T01:05:46.259Z,22.95
2023-04-17T01:06:48.340Z,23.05
2023-04-17T01:07:52.987Z,21.45
2023-04-17T01:08:55.928Z,23.75
2023-04-17T01:10:00.699Z,25.52
2023-04-17T01:11:02.733Z,22.48
2023-04-17T01:12:23.438Z,23.92
2023-04-17T01:13:26.231Z,23.75
2023-04-17T01:14:30.912Z,23.70
2023-04-17T01:15:33.110Z,24.50
2023-04-17T01:16:40.466Z,24.77
2023-04-17T01:17:42.592Z,24.13
2023-04-17T01:18:50.383Z,24.25
2023-04-17T01:19:52.965Z,24.45
2023-04-17T01:20:57.572Z,24.63
2023-04-17T01:21:59.725Z,26.48
2023-04-17T01:23:04.951Z,27.48
2023-04-17T01:24:11.235Z,26.15
2023-04-17T01:25:15.857Z,25.95
2023-04-17T01:26:19.671Z,26.65
2023-04-17T01:27:25.066Z,23.80
2023-04-17T01:28:27.083Z,24.15
2023-04-17T01:29:31.753Z,23.60
2023-04-17T01:30:33.833Z,23.27
2023-04-17T01:31:38.482Z,25.13
2023-04-17T01:32:40.563Z,23.05
2023-04-17T01:33:45.341Z,26.05
2023-04-17T01:34:47.455Z,23.70
2023-04-17T01:35:52.132Z,25.17
2023-04-17T01:36:54.332Z,24.35
2023-04-17T01:37:59.007Z,24.77
2023-04-17T01:39:01.205Z,24.17
2023-04-17T01:40:41.562Z,28.33
2023-04-17T01:41:46.218Z,24.17
2023-04-17T01:42:50.875Z,26.65
2023-04-17T01:43:52.934Z,25.90
2023-04-17T01:44:57.554Z,28.10
2023-04-17T01:45:59.709Z,27.75
2023-04-17T01:47:04.378Z,27.60
2023-04-17T01:48:06.814Z,28.30
2023-04-17T01:49:11.905Z,27.55
2023-04-17T01:50:14.422Z,28.13
2023-04-17T01:51:19.050Z,28.10
2023-04-17T01:52:21.340Z,25.52
2023-04-17T01:53:26.304Z,26.20
2023-04-17T01:54:28.366Z,28.38
2023-04-17T01:55:33.059Z,26.08
2023-04-17T01:56:35.191Z,24.42
2023-04-17T01:57:42.524Z,25.63
2023-04-17T01:58:44.546Z,25.67
2023-04-17T01:59:49.221Z,26.70
2023-04-17T02:00:52.168Z,25.90
2023-04-17T02:01:59.285Z,26.27
2023-04-17T02:03:01.553Z,26.27
2023-04-17T02:04:06.375Z,24.52
2023-04-17T02:05:08.711Z,25.73
2023-04-17T02:06:13.342Z,25.95
2023-04-17T02:07:15.416Z,26.15
2023-04-17T02:08:20.017Z,26.92
2023-04-17T02:09:22.649Z,28.75
2023-04-17T02:10:27.395Z,24.52
2023-04-17T02:11:29.537Z,25.00
2023-04-17T02:12:34.396Z,24.73
2023-04-17T02:13:39.027Z,22.92
2023-04-17T02:14:43.633Z,24.67
2023-04-17T02:15:45.973Z,24.08
2023-04-17T02:16:50.681Z,25.10
2023-04-17T02:17:52.754Z,23.90
2023-04-17T02:18:57.819Z,24.65
2023-04-17T02:19:59.868Z,25.02
2023-04-17T02:21:04.496Z,25.00
2023-04-17T02:22:06.533Z,27.23
2023-04-17T02:23:12.342Z,28.08
2023-04-17T02:24:14.469Z,28.40
2023-04-17T02:25:19.332Z,26.95
2023-04-17T02:26:21.944Z,24.00
2023-04-17T02:27:27.248Z,25.38
2023-04-17T02:28:29.288Z,23.85
2023-04-17T02:29:36.597Z,24.80
2023-04-17T02:30:38.650Z,27.35
2023-04-17T02:31:44.176Z,24.23
2023-04-17T02:32:46.453Z,23.40
2023-04-17T02:33:51.077Z,26.27
2023-04-17T02:34:54.462Z,24.45
2023-04-17T02:35:59.193Z,23.75
2023-04-17T02:37:01.597Z,24.67
2023-04-17T02:38:06.301Z,32.70
2023-04-17T02:39:08.341Z,27.35
2023-04-17T02:40:13.402Z,27.60
2023-04-17T02:41:15.696Z,27.10
2023-04-17T02:42:20.368Z,28.13
2023-04-17T02:43:22.765Z,22.73
2023-04-17T02:44:27.415Z,24.15
2023-04-17T02:45:32.308Z,23.50
2023-04-17T02:46:36.998Z,28.05
2023-04-17T02:47:39.464Z,24.20
2023-04-17T02:48:44.116Z,24.08
2023-04-17T02:49:46.113Z,25.15
2023-04-17T02:50:50.688Z,25.27
2023-04-17T02:51:52.784Z,24.55
2023-04-17T02:52:58.084Z,24.73
2023-04-17T02:54:00.120Z,23.48
2023-04-17T02:55:04.736Z,25.73
2023-04-17T02:56:07.169Z,26.13
2023-04-17T02:57:11.783Z,25.70
2023-04-17T02:58:13.936Z,27.38
2023-04-17T02:59:18.721Z,24.85
2023-04-17T03:00:21.160Z,26.17
2023-04-17T03:01:28.481Z,24.17
2023-04-17T03:02:30.868Z,24.17
2023-04-17T03:03:35.807Z,23.50
2023-04-17T03:04:39.211Z,24.67
2023-04-17T03:05:43.970Z,23.70
2023-04-17T03:06:46.006Z,23.17
2023-04-17T03:07:50.672Z,25.83
2023-04-17T03:08:56.005Z,24.08
2023-04-17T03:09:58.033Z,24.40
2023-04-17T03:11:02.689Z,26.50
2023-04-17T03:12:06.013Z,26.33
2023-04-17T03:13:10.620Z,27.08
2023-04-17T03:14:12.612Z,26.65
2023-04-17T03:15:17.318Z,29.65
2023-04-17T03:16:19.362Z,27.05
2023-04-17T03:17:26.648Z,24.30
2023-04-17T03:18:28.706Z,24.75
2023-04-17T03:19:33.387Z,22.35
2023-04-17T03:20:38.031Z,24.92
2023-04-17T03:21:40.096Z,25.27
2023-04-17T03:22:44.729Z,26.13
2023-04-17T03:23:46.742Z,25.45
2023-04-17T03:24:51.318Z,24.63
2023-04-17T03:25:53.675Z,26.80
2023-04-17T03:26:58.267Z,25.70
2023-04-17T03:28:00.273Z,24.83
2023-04-17T03:29:04.853Z,26.20
2023-04-17T03:30:08.848Z,27.38
2023-04-17T03:31:13.456Z,27.80
2023-04-17T03:32:16.062Z,30.20
2023-04-17T03:33:23.468Z,30.25
2023-04-17T03:34:26.378Z,24.73
2023-04-17T03:35:30.938Z,27.80
2023-04-17T03:36:35.624Z,25.75
2023-04-17T03:37:37.652Z,25.98
2023-04-17T03:38:42.276Z,28.00
2023-04-17T03:39:44.295Z,25.63
2023-04-17T03:40:48.964Z,24.42
2023-04-17T03:41:51.061Z,24.60
2023-04-17T03:42:56.099Z,27.85
2023-04-17T03:43:58.218Z,25.83
2023-04-17T03:45:03.615Z,26.00
2023-04-17T03:46:05.881Z,25.77
2023-04-17T03:47:10.556Z,27.58
2023-04-17T03:48:12.526Z,27.85
2023-04-17T03:49:19.718Z,26.30
2023-04-17T03:50:21.699Z,27.02
2023-04-17T03:51:27.501Z,26.02
2023-04-17T03:52:29.536Z,25.27
2023-04-17T03:53:34.200Z,26.50
2023-04-17T03:54:36.338Z,27.17
2023-04-17T03:55:40.979Z,25.88
2023-04-17T03:56:42.958Z,26.38
2023-04-17T03:57:48.683Z,26.27
2023-04-17T03:58:50.886Z,25.08
2023-04-17T03:59:55.498Z,27.73
2023-04-17T04:00:59.053Z,26.38
2023-04-17T04:02:03.685Z,25.83
2023-04-17T04:03:06.107Z,28.95
2023-04-17T04:04:11.148Z,27.05
2023-04-17T04:05:15.966Z,26.45
2023-04-17T04:06:20.673Z,27.65
2023-04-17T04:07:22.675Z,24.75
2023-04-17T04:08:27.418Z,24.77
2023-04-17T04:09:29.477Z,24.85
2023-04-17T04:10:35.260Z,23.58
2023-04-17T04:11:37.252Z,24.35
2023-04-17T04:12:41.846Z,27.48
2023-04-17T04:13:43.864Z,24.42
2023-04-17T04:14:48.459Z,27.40
2023-04-17T04:15:50.545Z,29.17
2023-04-17T04:16:55.649Z,25.38
2023-04-17T04:17:57.723Z,24.25
2023-04-17T04:19:02.444Z,26.98
2023-04-17T04:20:05.706Z,24.10
2023-04-17T04:21:12.898Z,26.80
2023-04-17T04:22:14.997Z,27.13
2023-04-17T04:23:21.251Z,24.05
2023-04-17T04:24:23.898Z,26.10
2023-04-17T04:25:29.021Z,25.90
2023-04-17T04:26:31.434Z,24.98
2023-04-17T04:27:36.054Z,24.45
2023-04-17T04:28:38.354Z,25.88
2023-04-17T04:29:48.962Z,25.42
2023-04-17T04:30:51.639Z,25.67
2023-04-17T04:31:56.335Z,25.08
2023-04-17T04:33:01.435Z,27.85
2023-04-17T04:34:06.564Z,26.70
2023-04-17T04:35:10.390Z,28.52
2023-04-17T04:36:21.124Z,29.23
2023-04-17T04:37:30.331Z,27.30
2023-04-17T04:38:34.941Z,26.88
2023-04-17T04:39:38.132Z,28.48
2023-04-17T04:40:50.105Z,28.25
2023-04-17T04:41:52.609Z,26.55
2023-04-17T04:42:57.298Z,26.75
2023-04-17T04:43:59.472Z,25.85
2023-04-17T04:45:04.103Z,28.40
2023-04-17T04:46:06.259Z,26.33
2023-04-17T04:47:10.997Z,29.38
2023-04-17T04:48:13.046Z,29.52
2023-04-17T04:49:17.636Z,29.00
2023-04-17T04:50:20.100Z,29.77
2023-04-17T04:51:27.340Z,30.48
2023-04-17T04:52:29.407Z,27.70
2023-04-17T04:53:33.973Z,31.20
2023-04-17T04:54:35.962Z,28.77
2023-04-17T04:55:40.522Z,27.02
2023-04-17T04:56:45.072Z,29.40
2023-04-17T04:57:49.790Z,28.80
2023-04-17T04:58:51.837Z,29.60
2023-04-17T04:59:56.678Z,27.73
2023-04-17T05:00:58.834Z,25.95
2023-04-17T05:02:03.690Z,27.52
2023-04-17T05:03:06.837Z,30.50
2023-04-17T05:04:11.597Z,28.48
2023-04-17T05:05:13.707Z,27.70
2023-04-17T05:06:18.472Z,29.33
2023-04-17T05:07:23.091Z,27.80
2023-04-17T05:08:28.124Z,26.83
2023-04-17T05:09:30.130Z,26.52
2023-04-17T05:10:34.766Z,27.20
2023-04-17T05:11:36.867Z,25.05
2023-04-17T05:12:41.797Z,28.55
2023-04-17T05:13:46.370Z,27.08
2023-04-17T05:14:48.359Z,25.15
2023-04-17T05:15:53.056Z,27.65
2023-04-17T05:16:55.844Z,24.52
2023-04-17T05:18:00.662Z,26.00
2023-04-17T05:19:02.728Z,29.13
2023-04-17T05:20:09.764Z,23.73
2023-04-17T05:21:11.783Z,26.23
2023-04-17T05:22:16.665Z,29.80
2023-04-17T05:23:23.014Z,26.40
2023-04-17T05:24:27.592Z,25.05
2023-04-17T05:25:29.628Z,28.35
2023-04-17T05:26:34.199Z,27.92
2023-04-17T05:27:36.175Z,24.00
2023-04-17T05:28:41.093Z,24.65
2023-04-17T05:29:43.146Z,24.80
2023-04-17T05:30:48.199Z,25.83
2023-04-17T05:31:50.533Z,24.38
2023-04-17T05:33:01.463Z,20.85
2023-04-17T05:34:03.613Z,24.08
2023-04-17T05:35:08.881Z,23.92
2023-04-17T05:36:11.004Z,26.63
2023-04-17T05:37:15.796Z,25.58
2023-04-17T05:38:23.069Z,27.17
2023-04-17T05:39:25.349Z,23.50
2023-04-17T05:40:29.982Z,23.95
2023-04-17T05:41:32.109Z,25.42
2023-04-17T05:42:36.779Z,24.05
2023-04-17T05:43:38.831Z,23.63
2023-04-17T05:44:43.443Z,22.35
2023-04-17T05:45:45.847Z,24.60
2023-04-17T05:46:50.561Z,22.83
2023-04-17T05:47:52.568Z,26.83
2023-04-17T05:48:57.272Z,25.38
2023-04-17T05:50:00.166Z,23.73
2023-04-17T05:51:04.819Z,25.92
2023-04-17T05:52:06.948Z,24.90
2023-04-17T05:53:11.698Z,24.50
2023-04-17T05:54:16.351Z,27.27
2023-04-17T05:55:21.802Z,24.13
2023-04-17T05:56:23.834Z,24.85
2023-04-17T05:57:28.694Z,21.63
2023-04-17T05:58:33.324Z,22.00
2023-04-17T05:59:35.429Z,20.70
2023-04-17T06:00:40.038Z,21.05
2023-04-17T06:01:43.793Z,20.48
2023-04-17T06:02:48.663Z,18.85
2023-04-17T06:03:51.245Z,19.77
2023-04-17T06:04:58.584Z,20.40
2023-04-17T06:06:03.598Z,19.00
2023-04-17T06:07:06.308Z,19.65
2023-04-17T06:08:11.072Z,19.60
2023-04-17T06:09:16.084Z,20.35
2023-04-17T06:10:20.985Z,20.08
2023-04-17T06:11:23.327Z,21.02
2023-04-17T06:12:28.112Z,18.05
2023-04-17T06:13:30.175Z,17.63
2023-04-17T06:14:34.869Z,18.38
2023-04-17T06:15:37.141Z,17.48
2023-04-17T06:16:41.782Z,18.17
2023-04-17T06:17:43.847Z,18.02
2023-04-17T06:18:48.530Z,16.08
2023-04-17T06:19:53.160Z,16.70
2023-04-17T06:20:55.560Z,18.00
2023-04-17T06:22:00.220Z,18.75
2023-04-17T06:23:02.322Z,18.42
2023-04-17T06:24:07.169Z,19.38
2023-04-17T06:25:11.924Z,16.42
2023-04-17T06:26:16.782Z,16.88
2023-04-17T06:27:18.838Z,18.90
2023-04-17T06:28:23.449Z,17.20
2023-04-17T06:29:25.584Z,14.75
2023-04-17T06:30:30.224Z,19.40
2023-04-17T06:31:32.480Z,15.00
2023-04-17T06:32:37.363Z,15.98
2023-04-17T06:33:39.420Z,16.10
2023-04-17T06:34:56.375Z,14.52
2023-04-17T06:36:03.627Z,15.98
2023-04-17T06:37:05.611Z,15.80
2023-04-17T06:38:10.227Z,15.77
2023-04-17T06:39:12.532Z,16.83
2023-04-17T06:40:20.112Z,18.42
2023-04-17T06:41:22.661Z,18.02
2023-04-17T06:42:28.297Z,17.98
2023-04-17T06:43:30.313Z,15.77
2023-04-17T06:44:34.984Z,15.45
2023-04-17T06:45:37.057Z,15.55
2023-04-17T06:46:41.695Z,15.57
2023-04-17T06:47:46.096Z,15.40
2023-04-17T06:48:52.400Z,15.13
2023-04-17T06:49:58.154Z,15.20
2023-04-17T06:51:00.125Z,18.70
2023-04-17T06:52:04.763Z,15.88
2023-04-17T06:53:07.053Z,15.57
2023-04-17T06:54:12.057Z,16.15
2023-04-17T06:55:19.632Z,16.65
2023-04-17T06:56:24.519Z,13.93
2023-04-17T06:57:26.576Z,12.85
2023-04-17T06:58:31.162Z,13.65
2023-04-17T06:59:36.228Z,13.70
2023-04-17T07:00:38.334Z,12.52
2023-04-17T07:01:43.119Z,11.75
2023-04-17T07:02:46.484Z,12.55
2023-04-17T07:03:51.311Z,13.85
2023-04-17T07:04:56.565Z,12.43
2023-04-17T07:06:01.180Z,12.93
2023-04-17T07:07:03.281Z,13.23
2023-04-17T07:08:08.757Z,11.88
2023-04-17T07:09:10.850Z,14.40
2023-04-17T07:10:16.204Z,13.15
2023-04-17T07:11:23.467Z,16.38
2023-04-17T07:12:25.488Z,13.07
2023-04-17T07:13:31.646Z,12.65
2023-04-17T07:14:36.457Z,12.30
2023-04-17T07:15:41.137Z,14.38
2023-04-17T07:16:43.306Z,12.27
2023-04-17T07:17:47.994Z,12.48
2023-04-17T07:18:52.984Z,13.18
2023-04-17T07:19:57.618Z,12.75
2023-04-17T07:21:02.913Z,11.50
2023-04-17T07:22:05.967Z,12.88
2023-04-17T07:23:10.629Z,12.95
2023-04-17T07:24:12.671Z,13.30
2023-04-17T07:25:17.231Z,14.25
2023-04-17T07:26:24.481Z,14.32
2023-04-17T07:27:26.933Z,11.52
2023-04-17T07:28:31.913Z,12.50
2023-04-17T07:29:36.612Z,11.95
2023-04-17T07:30:38.621Z,11.35
2023-04-17T07:31:43.290Z,12.93
2023-04-17T07:32:45.716Z,13.75
2023-04-17T07:33:50.779Z,10.18
2023-04-17T07:34:53.078Z,12.43
2023-04-17T07:35:57.701Z,10.73
2023-04-17T07:36:59.715Z,9.10
2023-04-17T07:38:04.449Z,8.48
2023-04-17T07:39:09.231Z,9.38
2023-04-17T07:40:14.846Z,7.72
2023-04-17T07:41:19.481Z,9.52
2023-04-17T07:42:24.138Z,9.70
2023-04-17T07:43:28.803Z,8.63
2023-04-17T07:44:30.870Z,8.18
2023-04-17T07:45:38.570Z,8.35
2023-04-17T07:46:45.364Z,9.32
2023-04-17T07:47:47.427Z,9.80
2023-04-17T07:48:52.032Z,8.85
2023-04-17T07:49:54.059Z,7.97
2023-04-17T07:50:58.646Z,9.65
2023-04-17T07:52:00.665Z,7.80
2023-04-17T07:53:05.600Z,6.22
2023-04-17T07:54:07.708Z,6.32
2023-04-17T07:55:12.673Z,6.05
2023-04-17T07:56:17.762Z,6.45
2023-04-17T07:57:22.372Z,6.75
2023-04-17T07:58:29.580Z,6.80
2023-04-17T07:59:34.402Z,5.95
2023-04-17T08:00:39.003Z,5.80
2023-04-17T08:01:43.669Z,6.15
2023-04-17T08:02:46.163Z,6.03
2023-04-17T08:03:51.903Z,5.78
2023-04-17T08:04:54.653Z,5.40
2023-04-17T08:05:59.319Z,6.88
2023-04-17T08:07:03.985Z,6.55
2023-04-17T08:08:06.104Z,5.63
2023-04-17T08:09:11.472Z,5.45
2023-04-17T08:10:13.689Z,6.40
2023-04-17T08:11:18.413Z,6.55
2023-04-17T08:12:20.831Z,6.35
2023-04-17T08:13:25.408Z,6.97
2023-04-17T08:14:30.106Z,5.90
2023-04-17T08:15:34.825Z,6.00
2023-04-17T08:16:39.512Z,6.15
2023-04-17T08:17:41.616Z,6.18
2023-04-17T08:18:46.218Z,6.75
2023-04-17T08:19:50.449Z,6.93
2023-04-17T08:20:55.868Z,6.85
2023-04-17T08:22:01.946Z,5.03
2023-04-17T08:23:07.388Z,5.80
2023-04-17T08:24:09.610Z,5.88
2023-04-17T08:25:15.291Z,6.05
2023-04-17T08:26:20.791Z,5.68
2023-04-17T08:27:22.780Z,5.70
2023-04-17T08:28:27.953Z,5.57
2023-04-17T08:29:32.581Z,6.15
2023-04-17T08:30:37.266Z,5.47
2023-04-17T08:31:40.639Z,6.18
2023-04-17T08:32:47.005Z,6.18
2023-04-17T08:33:49.109Z,6.78
2023-04-17T08:34:53.712Z,7.15
2023-04-17T08:35:58.293Z,7.50
2023-04-17T08:37:00.302Z,7.63
2023-04-17T08:38:04.903Z,8.70
2023-04-17T08:39:07.216Z,8.55
2023-04-17T08:40:13.471Z,7.50
2023-04-17T08:41:24.388Z,10.00
2023-04-17T08:42:30.357Z,7.68
2023-04-17T08:43:37.958Z,7.75
2023-04-17T08:44:42.717Z,7.70
2023-04-17T08:45:54.196Z,6.97
2023-04-17T08:48:02.286Z,7.95
2023-04-17T08:49:04.602Z,7.68
2023-04-17T08:50:11.693Z,7.32
2023-04-17T08:51:16.785Z,10.45
2023-04-17T08:52:21.604Z,9.50
2023-04-17T08:53:26.331Z,10.45
2023-04-17T08:54:28.320Z,10.60
2023-04-17T08:55:33.105Z,8.50
2023-04-17T08:56:35.146Z,11.05
2023-04-17T08:57:56.747Z,9.48
2023-04-17T08:59:01.434Z,10.27
2023-04-17T09:00:12.452Z,10.10
2023-04-17T09:01:20.109Z,11.27
2023-04-17T09:02:23.240Z,10.90
2023-04-17T09:03:57.337Z,10.88
2023-04-17T09:05:02.605Z,10.23
2023-04-17T09:06:05.116Z,9.68
2023-04-17T09:07:11.320Z,10.45
2023-04-17T09:08:17.343Z,10.60
2023-04-17T09:09:19.431Z,10.95
2023-04-17T09:10:24.034Z,10.27
2023-04-17T09:11:30.558Z,12.35
2023-04-17T09:12:32.604Z,11.85
2023-04-17T09:13:42.556Z,11.15
2023-04-17T09:14:44.839Z,14.15
2023-04-17T09:16:09.251Z,10.80
2023-04-17T09:17:11.636Z,11.63
2023-04-17T09:18:34.983Z,11.73
2023-04-17T09:19:37.169Z,11.73
2023-04-17T09:20:52.676Z,10.93
2023-04-17T09:21:54.937Z,9.95
2023-04-17T09:23:05.401Z,10.02
2023-04-17T09:24:43.212Z,10.68
2023-04-17T09:25:47.840Z,11.52
2023-04-17T09:26:49.863Z,10.75
2023-04-17T09:27:54.538Z,9.98
2023-04-17T09:29:12.389Z,9.93
2023-04-17T09:30:15.211Z,12.45
2023-04-17T09:31:34.631Z,11.73
2023-04-17T09:32:36.904Z,10.18
2023-04-17T09:33:59.220Z,10.05
2023-04-17T09:35:06.246Z,10.73
2023-04-17T09:36:24.059Z,11.38
2023-04-17T09:37:27.332Z,11.40
2023-04-17T09:38:40.156Z,10.52
2023-04-17T09:39:58.226Z,11.13
2023-04-17T09:41:02.905Z,12.48
2023-04-17T09:42:06.435Z,10.02
2023-04-17T09:43:12.548Z,10.73
2023-04-17T09:44:25.978Z,13.10
2023-04-17T09:45:35.694Z,13.73
2023-04-17T09:46:45.843Z,11.07
2023-04-17T09:47:49.075Z,12.93
2023-04-17T09:48:54.973Z,10.00
2023-04-17T09:49:59.985Z,11.98
2023-04-17T09:51:02.478Z,11.10
2023-04-17T09:52:07.378Z,10.70
2023-04-17T09:53:12.064Z,11.63
2023-04-17T09:54:16.366Z,11.95
2023-04-17T09:55:24.215Z,12.02
2023-04-17T09:56:28.217Z,14.38
2023-04-17T09:57:34.005Z,11.10
2023-04-17T09:58:38.597Z,14.98
2023-04-17T09:59:41.962Z,10.15
2023-04-17T10:00:47.006Z,9.90
2023-04-17T10:01:54.386Z,14.27
2023-04-17T10:03:01.063Z,11.57
2023-04-17T10:04:04.749Z,11.40
2023-04-17T10:05:13.048Z,10.65
2023-04-17T10:06:15.852Z,14.45
2023-04-17T10:07:20.755Z,14.13
2023-04-17T10:08:23.141Z,14.18
2023-04-17T10:09:28.183Z,14.02
2023-04-17T10:10:35.004Z,12.00
2023-04-17T10:11:39.268Z,14.48
2023-04-17T10:12:44.243Z,12.90
2023-04-17T10:13:52.908Z,12.90
2023-04-17T10:14:57.875Z,13.25
2023-04-17T10:16:00.268Z,13.30
2023-04-17T10:17:25.363Z,13.30
2023-04-17T10:18:30.022Z,16.30
2023-04-17T10:19:33.607Z,10.18
2023-04-17T10:20:45.122Z,12.18
2023-04-17T10:21:50.912Z,13.35
2023-04-17T10:22:56.894Z,15.55
2023-04-17T10:23:59.616Z,12.68
2023-04-17T10:25:22.729Z,16.08
2023-04-17T10:26:45.234Z,19.35
2023-04-17T10:27:50.689Z,13.63
2023-04-17T10:28:58.037Z,11.50
2023-04-17T10:30:04.335Z,15.10
2023-04-17T10:31:09.021Z,10.95
2023-04-17T10:32:17.634Z,13.60
2023-04-17T10:33:27.490Z,16.00
2023-04-17T10:34:36.754Z,14.02
2023-04-17T10:35:41.525Z,14.90
2023-04-17T10:36:50.043Z,10.13
2023-04-17T10:38:12.738Z,12.10
2023-04-17T10:39:16.100Z,11.82
2023-04-17T10:40:23.497Z,14.65
2023-04-17T10:41:28.452Z,14.10
2023-04-17T10:42:30.948Z,9.70
2023-04-17T10:43:35.649Z,9.52
2023-04-17T10:44:39.745Z,10.43
2023-04-17T10:46:07.007Z,11.75
2023-04-17T10:48:28.404Z,10.95
2023-04-17T10:49:50.124Z,12.18
2023-04-17T10:50:57.511Z,8.93
2023-04-17T10:51:59.814Z,10.05
2023-04-17T10:53:04.498Z,10.27
2023-04-17T10:54:10.659Z,9.63
2023-04-17T10:55:20.908Z,9.52
2023-04-17T10:56:28.313Z,12.68
2023-04-17T10:58:05.013Z,10.02
2023-04-17T10:59:08.610Z,11.13
2023-04-17T11:00:18.284Z,11.10
2023-04-17T11:01:22.978Z,12.77
2023-04-17T11:02:37.814Z,11.73
2023-04-17T11:03:42.821Z,11.35
2023-04-17T11:04:47.577Z,13.57
2023-04-17T11:05:49.839Z,10.90
2023-04-17T11:06:55.958Z,11.93
2023-04-17T11:07:58.280Z,13.98
2023-04-17T11:09:04.664Z,11.88
2023-04-17T11:10:07.520Z,11.43
2023-04-17T11:11:13.491Z,10.98
2023-04-17T11:12:15.772Z,12.02
2023-04-17T11:13:20.379Z,13.43
2023-04-17T11:14:23.655Z,11.48
2023-04-17T11:17:29.653Z,21.23
2023-04-17T11:18:34.546Z,10.13
2023-04-17T11:19:39.578Z,11.20
2023-04-17T11:20:45.294Z,9.05
2023-04-17T11:21:49.386Z,12.50
2023-04-17T11:23:25.215Z,7.68
2023-04-17T11:24:31.410Z,10.85
2023-04-17T11:25:34.804Z,12.65
2023-04-17T11:26:45.417Z,10.35
2023-04-17T11:27:47.476Z,12.70
2023-04-17T11:28:52.187Z,13.93
2023-04-17T11:29:54.219Z,11.25
2023-04-17T11:30:58.949Z,11.20
2023-04-17T11:32:01.469Z,16.33
2023-04-17T11:33:07.947Z,12.48
2023-04-17T11:34:11.333Z,12.40
2023-04-17T11:35:18.764Z,13.07
2023-04-17T11:36:24.948Z,17.25
2023-04-17T11:37:29.660Z,16.35
2023-04-17T11:38:34.267Z,14.43
2023-04-17T11:39:36.511Z,13.68
2023-04-17T11:40:46.634Z,11.80
2023-04-17T11:41:51.456Z,12.63
2023-04-17T11:42:53.514Z,12.32
2023-04-17T11:43:58.280Z,12.65
2023-04-17T11:45:04.624Z,12.93
2023-04-17T11:46:09.861Z,16.05
2023-04-17T11:47:12.144Z,12.98
2023-04-17T11:48:19.796Z,14.32
2023-04-17T11:49:26.056Z,17.63
2023-04-17T11:50:34.261Z,16.75
2023-04-17T11:51:39.651Z,15.13
2023-04-17T11:52:41.690Z,16.20
2023-04-17T11:53:49.289Z,15.13
2023-04-17T11:55:00.749Z,16.00
2023-04-17T11:56:28.484Z,12.45
2023-04-17T11:57:40.968Z,15.55
2023-04-17T11:58:50.008Z,12.93
2023-04-17T11:59:54.617Z,15.40
2023-04-17T12:01:07.987Z,13.68
2023-04-17T12:03:37.337Z,15.02
2023-04-17T12:04:42.586Z,14.40
2023-04-17T12:06:01.323Z,12.23
2023-04-17T12:07:07.724Z,12.45
2023-04-17T12:08:09.818Z,15.00
2023-04-17T12:09:24.401Z,15.38
2023-04-17T12:10:42.370Z,16.33
2023-04-17T12:11:47.106Z,13.40
2023-04-17T12:12:49.268Z,13.40
2023-04-17T12:13:54.202Z,14.30
2023-04-17T12:14:56.302Z,15.38
2023-04-17T12:16:01.031Z,13.10
2023-04-17T12:17:03.148Z,14.00
2023-04-17T12:18:09.530Z,12.35
2023-04-17T12:19:16.840Z,13.10
2023-04-17T12:20:19.035Z,14.60
2023-04-17T12:21:29.332Z,18.13
2023-04-17T12:22:31.418Z,13.50
2023-04-17T12:23:36.050Z,11.25
2023-04-17T12:24:38.078Z,12.43
2023-04-17T12:25:42.742Z,11.57
2023-04-17T12:26:46.990Z,12.98
2023-04-17T12:27:51.637Z,14.55
2023-04-17T12:28:56.367Z,12.98
2023-04-17T12:29:58.371Z,11.40
2023-04-17T12:31:03.016Z,12.68
2023-04-17T12:32:05.485Z,12.80
2023-04-17T12:33:10.197Z,12.68
2023-04-17T12:34:12.811Z,12.20
2023-04-17T12:35:19.152Z,12.48
2023-04-17T12:36:26.827Z,15.75
2023-04-17T12:37:29.165Z,15.18
2023-04-17T12:38:34.357Z,14.20
2023-04-17T12:39:36.350Z,13.30
2023-04-17T12:40:43.441Z,12.50
2023-04-17T12:41:48.098Z,12.02
2023-04-17T12:42:50.234Z,12.90
2023-04-17T12:43:54.872Z,13.68
2023-04-17T12:44:57.032Z,14.45
2023-04-17T12:46:01.687Z,12.40
2023-04-17T12:47:03.919Z,24.45
2023-04-17T12:48:09.914Z,13.02
2023-04-17T12:49:12.203Z,14.73
2023-04-17T12:50:16.964Z,12.40
2023-04-17T12:51:21.892Z,14.57
2023-04-17T12:52:26.751Z,23.67
2023-04-17T12:53:31.358Z,16.38
2023-04-17T12:54:33.390Z,16.48
2023-04-17T12:55:38.799Z,14.05
2023-04-17T12:56:43.947Z,15.77
2023-04-17T12:57:49.034Z,14.48
2023-04-17T12:58:53.711Z,15.60
2023-04-17T12:59:56.016Z,13.93
2023-04-17T13:01:00.932Z,15.05
2023-04-17T13:02:03.081Z,15.25
2023-04-17T13:03:08.962Z,16.23
2023-04-17T13:04:11.358Z,12.90
2023-04-17T13:05:16.325Z,19.13
2023-04-17T13:06:21.701Z,16.85
2023-04-17T13:07:28.954Z,16.25
2023-04-17T13:08:33.595Z,14.93
2023-04-17T13:09:35.671Z,13.35
2023-04-17T13:10:40.534Z,12.38
2023-04-17T13:11:42.529Z,12.10
2023-04-17T13:12:47.215Z,12.02
2023-04-17T13:13:49.202Z,16.00
2023-04-17T13:14:54.033Z,11.13
2023-04-17T13:15:58.690Z,13.65
2023-04-17T13:17:01.164Z,15.00
2023-04-17T13:18:05.998Z,11.63
2023-04-17T13:19:08.116Z,12.32
2023-04-17T13:20:14.063Z,13.60
2023-04-17T13:21:16.059Z,12.65
2023-04-17T13:22:21.184Z,14.20
2023-04-17T13:23:25.906Z,14.63
2023-04-17T13:24:30.943Z,17.75
2023-04-17T13:25:35.841Z,15.88
2023-04-17T13:26:41.221Z,12.25
2023-04-17T13:27:46.091Z,10.85
2023-04-17T13:28:48.234Z,11.95
2023-04-17T13:29:52.886Z,12.93
2023-04-17T13:30:54.982Z,12.63
2023-04-17T13:31:59.774Z,15.38
2023-04-17T13:33:04.475Z,13.43
2023-04-17T13:34:07.244Z,15.13
2023-04-17T13:35:13.725Z,14.05
2023-04-17T13:36:15.834Z,16.27
2023-04-17T13:37:20.637Z,16.30
2023-04-17T13:38:25.293Z,19.38
2023-04-17T13:39:30.162Z,17.85
2023-04-17T13:40:32.218Z,16.05
2023-04-17T13:41:36.888Z,21.45
2023-04-17T13:42:41.542Z,16.23
2023-04-17T13:43:43.707Z,17.58
2023-04-17T13:44:49.543Z,19.80
2023-04-17T13:45:54.158Z,15.23
2023-04-17T13:47:00.202Z,16.90
2023-04-17T13:48:04.904Z,16.60
2023-04-17T13:49:07.724Z,15.45
2023-04-17T13:50:13.101Z,16.50
2023-04-17T13:51:15.616Z,26.42
2023-04-17T13:52:20.309Z,18.92
2023-04-17T13:53:22.452Z,20.50
2023-04-17T13:54:29.674Z,22.27
2023-04-17T13:55:31.829Z,28.63
2023-04-17T13:56:36.694Z,26.95
2023-04-17T13:57:41.646Z,24.88
2023-04-17T13:58:44.710Z,24.75
2023-04-17T13:59:49.326Z,24.17
2023-04-17T14:00:51.965Z,25.42
2023-04-17T14:01:56.918Z,23.95
2023-04-17T14:03:00.339Z,22.10
2023-04-17T14:04:05.539Z,23.77
2023-04-17T14:05:08.561Z,22.42
2023-04-17T14:06:13.258Z,25.60
2023-04-17T14:07:18.536Z,24.92
2023-04-17T14:08:21.070Z,23.08